Time;durP1;ratioP1;P1;durP2;ratioP2;P2;SDS_P1;SDS_P2;PMS_P1;PMS_P2;Temp;Humidity;BMP_temperature;BMP_pressure;BME280_temperature;BME280_humidity;BME280_pressure;Samples;Min_cycle;Max_cycle;Signal;HPM_P1;HPM_P2
2023/02/28 00:00:14;;;;;;;3.13;2.58;;;;;;;;;;6181953;23;20392;-91
2023/02/28 00:02:43;;;;;;;3.67;3.35;;;;;;;;;;6191832;23;20020;-90
2023/02/28 00:05:12;;;;;;;3.15;2.83;;;;;;;;;;6183518;23;20013;-90
2023/02/28 00:07:41;;;;;;;5.32;3.75;;;;;;;;;;6156819;23;20465;-91
2023/02/28 00:10:11;;;;;;;3.85;2.80;;;;;;;;;;6182162;23;20043;-91
2023/02/28 00:12:39;;;;;;;7.50;3.45;;;;;;;;;;6154244;23;20065;-91
2023/02/28 00:15:07;;;;;;;4.45;3.60;;;;;;;;;;6180953;23;20020;-91
2023/02/28 00:17:34;;;;;;;4.97;3.15;;;;;;;;;;6189654;23;20442;-91
2023/02/28 00:20:11;;;;;;;5.65;3.20;;;;;;;;;;6181023;23;20024;-90
2023/02/28 00:22:41;;;;;;;4.10;3.00;;;;;;;;;;6181458;23;20020;-90
2023/02/28 00:25:10;;;;;;;5.63;3.45;;;;;;;;;;6162541;23;20013;-90
2023/02/28 00:27:38;;;;;;;5.47;3.33;;;;;;;;;;6179842;23;20029;-90
2023/02/28 00:30:08;;;;;;;3.78;2.53;;;;;;;;;;6153388;23;20020;-90
2023/02/28 00:32:35;;;;;;;5.00;3.75;;;;;;;;;;6179665;23;20013;-90
2023/02/28 00:35:03;;;;;;;4.72;3.83;;;;;;;;;;6155832;23;20453;-90
2023/02/28 00:37:31;;;;;;;2.67;2.45;;;;;;;;;;6130943;23;20496;-90
2023/02/28 00:40:00;;;;;;;4.75;2.95;;;;;;;;;;6182415;23;20580;-91
2023/02/28 00:42:28;;;;;;;3.72;3.38;;;;;;;;;;6164547;23;20024;-90
2023/02/28 00:44:55;;;;;;;3.72;3.42;;;;;;;;;;6157252;23;20017;-91
2023/02/28 00:47:23;;;;;;;5.90;3.45;;;;;;;;;;6182087;23;20013;-90
2023/02/28 00:49:50;;;;;;;5.07;3.35;;;;;;;;;;6156464;23;20483;-90
2023/02/28 00:52:17;;;;;;;5.53;3.60;;;;;;;;;;6154474;23;20013;-90
2023/02/28 00:54:45;;;;;;;7.18;4.82;;;;;;;;;;6156747;23;20013;-90
2023/02/28 00:57:13;;;;;;;3.63;2.78;;;;;;;;;;6156445;23;20078;-90
2023/02/28 00:59:41;;;;;;;4.50;3.60;;;;;;;;;;6182403;23;20326;-90
2023/02/28 01:02:08;;;;;;;6.80;4.15;;;;;;;;;;6180017;23;20013;-91
2023/02/28 01:04:37;;;;;;;4.93;3.65;;;;;;;;;;6156249;23;20024;-90
2023/02/28 01:07:05;;;;;;;4.65;3.97;;;;;;;;;;6181480;23;20016;-90
2023/02/28 01:09:32;;;;;;;4.35;3.65;;;;;;;;;;6156654;23;20024;-90
2023/02/28 01:11:59;;;;;;;3.00;2.70;;;;;;;;;;6154375;23;20013;-90
2023/02/28 01:14:28;;;;;;;3.92;3.53;;;;;;;;;;6181183;23;20013;-89
2023/02/28 01:16:55;;;;;;;5.15;3.30;;;;;;;;;;6178427;23;20016;-90
2023/02/28 01:19:23;;;;;;;3.63;3.33;;;;;;;;;;6153012;23;20350;-90
2023/02/28 01:21:50;;;;;;;3.33;2.78;;;;;;;;;;6153702;23;20013;-90
2023/02/28 01:24:17;;;;;;;4.65;3.17;;;;;;;;;;6189483;23;20021;-90
2023/02/28 01:26:45;;;;;;;4.35;3.92;;;;;;;;;;6153303;23;20028;-90
2023/02/28 01:29:13;;;;;;;4.50;3.08;;;;;;;;;;6181936;23;20017;-90
2023/02/28 01:31:41;;;;;;;5.20;4.05;;;;;;;;;;6153996;23;20013;-89
2023/02/28 01:34:09;;;;;;;4.28;3.58;;;;;;;;;;6128398;23;20021;-89
2023/02/28 01:36:37;;;;;;;5.20;3.97;;;;;;;;;;6154201;23;20348;-90
2023/02/28 01:39:04;;;;;;;5.65;4.07;;;;;;;;;;6129554;23;20040;-90
2023/02/28 01:41:34;;;;;;;4.88;3.42;;;;;;;;;;6128891;23;20021;-89
2023/02/28 01:44:04;;;;;;;4.15;3.15;;;;;;;;;;6180193;23;20505;-89
2023/02/28 01:46:32;;;;;;;5.47;3.67;;;;;;;;;;6153711;23;20020;-89
2023/02/28 01:49:06;;;;;;;4.70;3.60;;;;;;;;;;6178429;23;20491;-89
2023/02/28 01:51:35;;;;;;;;;;;;;;;;;;6156255;23;20020;-89
2023/02/28 01:54:05;;;;;;;4.85;4.00;;;;;;;;;;6128472;23;19916;-89
2023/02/28 01:56:35;;;;;;;5.15;3.65;;;;;;;;;;6154238;23;20016;-90
2023/02/28 01:59:03;;;;;;;5.63;4.70;;;;;;;;;;6153715;23;20013;-89
2023/02/28 02:01:32;;;;;;;9.55;5.18;;;;;;;;;;6156279;23;20456;-90
2023/02/28 02:04:04;;;;;;;4.47;3.97;;;;;;;;;;6179205;23;20094;-89
2023/02/28 02:06:35;;;;;;;4.18;3.30;;;;;;;;;;6166231;23;20013;-89
2023/02/28 02:09:02;;;;;;;6.93;3.85;;;;;;;;;;6165024;23;20017;-89
2023/02/28 02:11:30;;;;;;;5.85;4.28;;;;;;;;;;6181776;23;20020;-89
2023/02/28 02:14:14;;;;;;;4.90;4.40;;;;;;;;;;6131353;23;20013;-89
2023/02/28 02:16:52;;;;;;;8.65;5.43;;;;;;;;;;6165694;23;20013;-89
2023/02/28 02:19:38;;;;;;;6.57;4.78;;;;;;;;;;6166308;23;20468;-89
2023/02/28 02:22:28;;;;;;;5.55;4.82;;;;;;;;;;6162646;23;20330;-88
2023/02/28 02:25:12;;;;;;;5.10;4.32;;;;;;;;;;6131105;23;20372;-89
2023/02/28 02:28:00;;;;;;;4.50;3.95;;;;;;;;;;6191798;23;20017;-89
2023/02/28 02:30:48;;;;;;;4.43;3.30;;;;;;;;;;6153300;23;20025;-88
2023/02/28 02:33:54;;;;;;;5.05;3.75;;;;;;;;;;6135135;23;20357;-89
2023/02/28 02:36:25;;;;;;;5.43;4.25;;;;;;;;;;6136235;23;20449;-89
2023/02/28 02:38:56;;;;;;;5.40;3.95;;;;;;;;;;6153702;23;20021;-89
2023/02/28 02:41:28;;;;;;;4.25;2.88;;;;;;;;;;6155930;23;20009;-89
2023/02/28 02:43:59;;;;;;;5.15;3.53;;;;;;;;;;6164228;23;20017;-89
2023/02/28 02:46:30;;;;;;;4.05;3.58;;;;;;;;;;6157023;23;20488;-89
2023/02/28 02:49:01;;;;;;;5.22;3.05;;;;;;;;;;6194744;23;20032;-89
2023/02/28 02:51:31;;;;;;;4.90;3.85;;;;;;;;;;6135575;23;20017;-89
2023/02/28 02:54:04;;;;;;;6.68;3.80;;;;;;;;;;6160379;23;20020;-89
2023/02/28 02:56:37;;;;;;;5.20;3.70;;;;;;;;;;6159775;23;20021;-89
2023/02/28 02:59:07;;;;;;;5.88;4.03;;;;;;;;;;6134957;23;20017;-88
2023/02/28 03:01:36;;;;;;;5.40;4.18;;;;;;;;;;6160501;23;20017;-88
2023/02/28 03:04:10;;;;;;;5.55;3.92;;;;;;;;;;6169668;23;20020;-88
2023/02/28 03:06:40;;;;;;;6.07;3.97;;;;;;;;;;6132411;23;20031;-88
2023/02/28 03:09:08;;;;;;;6.13;4.28;;;;;;;;;;6136115;23;20027;-88
2023/02/28 03:11:36;;;;;;;4.55;3.47;;;;;;;;;;6159025;23;20028;-88
2023/02/28 03:14:21;;;;;;;5.72;3.88;;;;;;;;;;6161362;23;20033;-88
2023/02/28 03:17:03;;;;;;;6.53;5.00;;;;;;;;;;6135950;23;20047;-88
2023/02/28 03:19:38;;;;;;;5.80;4.53;;;;;;;;;;6171480;23;20019;-89
2023/02/28 03:22:44;;;;;;;4.43;3.92;;;;;;;;;;6166763;23;20196;-88
2023/02/28 03:25:20;;;;;;;5.20;4.05;;;;;;;;;;6128029;23;20024;-89
2023/02/28 03:27:56;;;;;;;5.70;4.70;;;;;;;;;;6171705;23;20024;-88
2023/02/28 03:30:25;;;;;;;7.38;4.10;;;;;;;;;;6167954;23;20020;-88
2023/02/28 03:32:56;;;;;;;4.63;3.38;;;;;;;;;;6196242;23;20012;-89
2023/02/28 03:35:24;;;;;;;8.18;4.75;;;;;;;;;;6197021;23;20016;-89
2023/02/28 03:37:56;;;;;;;6.90;5.47;;;;;;;;;;6187102;23;20021;-88
2023/02/28 03:40:28;;;;;;;6.15;3.97;;;;;;;;;;6195351;23;20021;-88
2023/02/28 03:42:59;;;;;;;6.05;4.82;;;;;;;;;;6197985;23;20013;-88
2023/02/28 03:45:28;;;;;;;5.15;3.88;;;;;;;;;;6160365;23;20028;-88
2023/02/28 03:47:58;;;;;;;6.47;5.53;;;;;;;;;;6188930;23;20017;-88
2023/02/28 03:50:28;;;;;;;5.45;4.20;;;;;;;;;;6162481;23;20361;-88
2023/02/28 03:53:01;;;;;;;5.07;4.65;;;;;;;;;;6196419;23;20013;-88
2023/02/28 03:55:33;;;;;;;4.80;3.88;;;;;;;;;;6161698;23;20021;-88
2023/02/28 03:58:09;;;;;;;5.70;4.70;;;;;;;;;;6195823;23;20024;-88
2023/02/28 04:00:39;;;;;;;5.85;4.80;;;;;;;;;;6165904;23;20017;-87
2023/02/28 04:03:06;;;;;;;5.43;4.32;;;;;;;;;;6186485;23;20018;-88
2023/02/28 04:05:34;;;;;;;7.00;4.45;;;;;;;;;;6196601;23;20013;-87
2023/02/28 04:08:05;;;;;;;6.20;5.32;;;;;;;;;;6184222;23;20028;-87
2023/02/28 04:10:34;;;;;;;13.20;5.90;;;;;;;;;;6165830;23;20024;-88
2023/02/28 04:13:01;;;;;;;5.57;4.38;;;;;;;;;;6182335;23;20024;-87
2023/02/28 04:15:28;;;;;;;5.32;4.82;;;;;;;;;;6186977;23;20017;-87
2023/02/28 04:17:56;;;;;;;6.88;5.18;;;;;;;;;;6185736;23;20013;-88
2023/02/28 04:20:23;;;;;;;5.07;4.57;;;;;;;;;;6158063;23;20020;-87
2023/02/28 04:22:50;;;;;;;4.72;3.72;;;;;;;;;;6183470;23;20021;-87
2023/02/28 04:25:20;;;;;;;7.80;4.47;;;;;;;;;;6134022;23;20029;-87
2023/02/28 04:27:48;;;;;;;5.80;5.05;;;;;;;;;;6184491;23;20017;-87
2023/02/28 04:30:18;;;;;;;7.22;4.85;;;;;;;;;;6166629;23;20025;-88
2023/02/28 04:32:45;;;;;;;8.88;6.18;;;;;;;;;;6184355;23;20020;-87
2023/02/28 04:35:15;;;;;;;6.03;4.25;;;;;;;;;;6195903;23;20012;-87
2023/02/28 04:37:45;;;;;;;6.88;5.22;;;;;;;;;;6165048;23;20012;-86
2023/02/28 04:40:14;;;;;;;5.25;4.03;;;;;;;;;;6165774;23;20031;-89
2023/02/28 04:42:41;;;;;;;6.40;4.78;;;;;;;;;;6160460;23;20017;-90
2023/02/28 04:45:13;;;;;;;5.95;4.88;;;;;;;;;;6198853;23;20009;-90
2023/02/28 04:47:40;;;;;;;5.70;4.45;;;;;;;;;;6187011;23;20027;-90
2023/02/28 04:50:08;;;;;;;8.82;6.50;;;;;;;;;;6157723;23;20020;-90
2023/02/28 04:52:38;;;;;;;9.00;5.97;;;;;;;;;;6184127;23;20422;-91
2023/02/28 04:55:08;;;;;;;5.47;4.97;;;;;;;;;;6186518;23;20013;-91
2023/02/28 04:57:38;;;;;;;6.28;4.68;;;;;;;;;;6182840;23;20021;-90
2023/02/28 05:00:11;;;;;;;9.32;4.38;;;;;;;;;;6183656;23;20028;-90
2023/02/28 05:02:42;;;;;;;10.33;5.23;;;;;;;;;;6193265;23;20027;-89
2023/02/28 05:05:16;;;;;;;6.25;4.78;;;;;;;;;;6192830;23;20020;-90
2023/02/28 05:07:43;;;;;;;9.27;5.88;;;;;;;;;;6193271;23;20017;-91
2023/02/28 05:10:12;;;;;;;5.85;4.93;;;;;;;;;;6182732;23;20017;-90
2023/02/28 05:12:39;;;;;;;5.13;4.47;;;;;;;;;;6195754;23;20019;-90
2023/02/28 05:15:10;;;;;;;5.82;5.20;;;;;;;;;;6186850;23;20013;-89
2023/02/28 05:17:39;;;;;;;8.50;4.93;;;;;;;;;;6163307;23;20357;-90
2023/02/28 05:20:11;;;;;;;6.18;5.28;;;;;;;;;;6162995;23;20027;-89
2023/02/28 05:22:38;;;;;;;8.77;4.80;;;;;;;;;;6193346;23;20016;-88
2023/02/28 05:25:06;;;;;;;7.05;4.82;;;;;;;;;;6185394;23;20013;-89
2023/02/28 05:27:35;;;;;;;8.05;5.50;;;;;;;;;;6158955;23;20024;-89
2023/02/28 05:30:04;;;;;;;5.00;4.43;;;;;;;;;;6196040;23;20009;-88
2023/02/28 05:32:33;;;;;;;6.70;4.50;;;;;;;;;;6185753;23;20036;-88
2023/02/28 05:35:03;;;;;;;4.78;3.88;;;;;;;;;;6206699;23;20027;-88
2023/02/28 05:37:32;;;;;;;6.30;5.07;;;;;;;;;;6179060;23;20019;-88
2023/02/28 05:39:59;;;;;;;5.97;4.07;;;;;;;;;;6201814;23;20017;-88
2023/02/28 05:42:27;;;;;;;6.25;3.58;;;;;;;;;;6173159;23;20235;-88
2023/02/28 05:44:54;;;;;;;5.07;4.28;;;;;;;;;;6181232;23;20345;-88
2023/02/28 05:47:21;;;;;;;4.90;3.92;;;;;;;;;;6181179;23;20037;-88
2023/02/28 05:49:53;;;;;;;6.97;4.90;;;;;;;;;;6175037;23;20017;-89
2023/02/28 05:52:21;;;;;;;7.82;5.18;;;;;;;;;;6186418;23;20417;-89
2023/02/28 05:54:49;;;;;;;6.75;5.60;;;;;;;;;;6175113;23;20123;-89
2023/02/28 05:57:16;;;;;;;6.22;4.80;;;;;;;;;;6174654;23;20477;-90
2023/02/28 05:59:44;;;;;;;5.63;3.85;;;;;;;;;;6148858;23;20617;-89
2023/02/28 06:02:16;;;;;;;6.53;4.82;;;;;;;;;;6184540;23;20017;-89
2023/02/28 06:04:43;;;;;;;7.80;5.30;;;;;;;;;;6173864;23;20016;-88
2023/02/28 06:07:11;;;;;;;7.43;5.43;;;;;;;;;;6147887;23;20032;-89
2023/02/28 06:09:39;;;;;;;7.18;5.38;;;;;;;;;;6174189;23;20346;-89
2023/02/28 06:12:09;;;;;;;6.05;4.63;;;;;;;;;;6147792;23;20021;-89
2023/02/28 06:14:39;;;;;;;5.85;4.75;;;;;;;;;;6147304;23;20024;-89
2023/02/28 06:17:06;;;;;;;4.72;4.00;;;;;;;;;;6175476;23;20014;-89
2023/02/28 06:19:38;;;;;;;6.63;5.60;;;;;;;;;;6147378;23;20013;-89
2023/02/28 06:22:10;;;;;;;5.47;4.78;;;;;;;;;;6181167;23;20021;-89
2023/02/28 06:24:37;;;;;;;8.95;5.07;;;;;;;;;;6183840;23;20427;-89
2023/02/28 06:27:08;;;;;;;6.30;5.00;;;;;;;;;;6148604;23;20028;-89
2023/02/28 06:29:35;;;;;;;6.38;5.35;;;;;;;;;;6164071;23;20013;-89
2023/02/28 06:32:05;;;;;;;6.82;5.95;;;;;;;;;;6166670;23;20032;-89
2023/02/28 06:34:33;;;;;;;9.70;6.28;;;;;;;;;;6130337;23;20017;-90
2023/02/28 06:37:01;;;;;;;7.22;5.07;;;;;;;;;;6181667;23;20020;-90
2023/02/28 06:39:29;;;;;;;18.77;5.60;;;;;;;;;;6154959;23;20009;-90
2023/02/28 06:41:56;;;;;;;7.85;5.05;;;;;;;;;;6180923;23;20322;-90
2023/02/28 06:44:35;;;;;;;6.70;5.15;;;;;;;;;;6155022;23;20384;-89
2023/02/28 06:47:07;;;;;;;8.57;6.47;;;;;;;;;;6164042;23;20013;-90
2023/02/28 06:52:36;;;;;;;6.55;5.90;;;;;;;;;;6179371;23;20013;-88
2023/02/28 06:55:04;;;;;;;8.13;5.45;;;;;;;;;;6133736;23;20062;-88
2023/02/28 06:57:32;;;;;;;9.45;5.63;;;;;;;;;;6105744;23;20081;-89
2023/02/28 07:00:02;;;;;;;8.82;6.35;;;;;;;;;;6101922;23;20018;-90
2023/02/28 07:02:31;;;;;;;6.25;4.88;;;;;;;;;;6100709;23;20030;-91
2023/02/28 07:04:58;;;;;;;8.82;6.28;;;;;;;;;;6103285;23;20024;-91
2023/02/28 07:07:28;;;;;;;9.93;6.18;;;;;;;;;;6101627;23;20018;-90
2023/02/28 07:09:56;;;;;;;9.07;5.18;;;;;;;;;;6075243;23;20014;-90
2023/02/28 07:12:25;;;;;;;7.32;5.65;;;;;;;;;;6073991;23;20018;-91
2023/02/28 07:14:55;;;;;;;7.43;6.20;;;;;;;;;;6098916;23;20014;-91
2023/02/28 07:17:24;;;;;;;7.03;6.32;;;;;;;;;;6097144;23;20021;-90
2023/02/28 07:19:51;;;;;;;7.55;5.75;;;;;;;;;;6074760;23;20014;-90
2023/02/28 07:22:21;;;;;;;7.25;5.50;;;;;;;;;;6073857;23;20025;-91
2023/02/28 07:24:49;;;;;;;9.15;7.20;;;;;;;;;;6074930;23;20365;-90
2023/02/28 07:27:25;;;;;;;8.88;6.20;;;;;;;;;;6074510;23;20033;-91
2023/02/28 07:29:54;;;;;;;6.97;5.55;;;;;;;;;;6074569;23;20025;-90
2023/02/28 07:32:25;;;;;;;5.95;5.28;;;;;;;;;;6107672;23;20021;-90
2023/02/28 07:34:52;;;;;;;7.72;6.28;;;;;;;;;;6073911;23;20021;-89
2023/02/28 07:37:20;;;;;;;9.23;5.75;;;;;;;;;;6074205;23;20033;-90
2023/02/28 07:39:47;;;;;;;6.80;5.72;;;;;;;;;;6101344;23;20006;-89
2023/02/28 07:42:14;;;;;;;6.93;5.25;;;;;;;;;;6104015;23;20050;-89
2023/02/28 07:44:42;;;;;;;10.05;5.47;;;;;;;;;;6085548;23;20032;-90
2023/02/28 07:47:44;;;;;;;8.60;4.82;;;;;;;;;;6125833;23;20021;-90
2023/02/28 07:50:17;;;;;;;6.60;4.75;;;;;;;;;;6076636;23;20382;-91
2023/02/28 07:52:44;;;;;;;8.20;6.07;;;;;;;;;;6097414;23;20021;-90
2023/02/28 07:55:16;;;;;;;6.72;5.20;;;;;;;;;;6074560;23;20014;-90
2023/02/28 07:57:45;;;;;;;9.60;6.07;;;;;;;;;;6097249;23;20018;-90
2023/02/28 08:00:13;;;;;;;8.32;6.15;;;;;;;;;;6099319;23;20353;-91
2023/02/28 08:02:44;;;;;;;9.50;6.15;;;;;;;;;;6071464;23;20025;-90
2023/02/28 08:05:12;;;;;;;9.70;6.40;;;;;;;;;;6074273;23;20018;-91
2023/02/28 08:07:42;;;;;;;8.80;6.30;;;;;;;;;;6097486;23;20022;-90
2023/02/28 08:10:11;;;;;;;5.88;4.85;;;;;;;;;;6098411;23;20017;-91
2023/02/28 08:12:40;;;;;;;6.85;5.78;;;;;;;;;;6097272;23;20022;-92
2023/02/28 08:15:09;;;;;;;6.85;6.10;;;;;;;;;;6074291;23;20032;-90
2023/02/28 08:17:39;;;;;;;9.13;6.53;;;;;;;;;;6095734;23;20022;-90
2023/02/28 08:20:10;;;;;;;7.32;6.63;;;;;;;;;;6096861;23;20014;-90
2023/02/28 08:22:37;;;;;;;10.82;5.95;;;;;;;;;;6073405;23;20018;-90
2023/02/28 08:25:06;;;;;;;8.85;5.63;;;;;;;;;;6097733;23;20022;-90
2023/02/28 08:27:34;;;;;;;7.05;5.95;;;;;;;;;;6097206;23;20021;-91
2023/02/28 08:30:01;;;;;;;7.60;5.38;;;;;;;;;;6074203;23;20029;-91
2023/02/28 08:32:33;;;;;;;9.07;5.95;;;;;;;;;;6073500;23;20014;-90
2023/02/28 08:35:01;;;;;;;7.82;6.82;;;;;;;;;;6072546;23;20014;-91
2023/02/28 08:37:30;;;;;;;6.20;4.60;;;;;;;;;;6073572;23;20018;-90
2023/02/28 08:40:00;;;;;;;7.22;5.93;;;;;;;;;;6074396;23;20029;-90
2023/02/28 08:42:27;;;;;;;8.60;6.45;;;;;;;;;;6122012;23;20431;-91
2023/02/28 08:44:55;;;;;;;8.55;6.40;;;;;;;;;;6070328;23;20021;-91
2023/02/28 08:47:22;;;;;;;9.18;5.50;;;;;;;;;;6071325;23;20022;-90
2023/02/28 08:49:52;;;;;;;8.90;5.25;;;;;;;;;;6097651;23;20033;-90
2023/02/28 08:52:19;;;;;;;8.95;6.38;;;;;;;;;;6072393;23;20353;-91
2023/02/28 08:54:49;;;;;;;8.90;7.13;;;;;;;;;;6050154;23;20018;-90
2023/02/28 08:57:16;;;;;;;9.70;6.18;;;;;;;;;;6095079;23;20018;-90
2023/02/28 08:59:44;;;;;;;9.15;6.28;;;;;;;;;;6050736;23;20022;-91
2023/02/28 09:02:13;;;;;;;9.40;6.18;;;;;;;;;;6071134;23;20014;-90
2023/02/28 09:04:41;;;;;;;7.85;6.97;;;;;;;;;;6073589;23;20473;-91
2023/02/28 09:07:08;;;;;;;8.15;7.03;;;;;;;;;;6071048;23;20022;-91
2023/02/28 09:09:36;;;;;;;9.20;6.70;;;;;;;;;;6095574;23;20018;-91
2023/02/28 09:12:05;;;;;;;7.00;5.32;;;;;;;;;;6096446;23;20018;-90
2023/02/28 09:14:32;;;;;;;10.45;7.15;;;;;;;;;;6097480;23;20025;-91
2023/02/28 09:17:05;;;;;;;11.20;6.22;;;;;;;;;;6050456;23;20037;-90
2023/02/28 09:19:32;;;;;;;7.30;6.22;;;;;;;;;;6096307;23;20025;-91
2023/02/28 09:22:00;;;;;;;7.78;5.60;;;;;;;;;;6096336;23;20026;-90
2023/02/28 09:24:27;;;;;;;6.88;5.70;;;;;;;;;;6073373;23;20017;-90
2023/02/28 09:26:55;;;;;;;7.85;5.78;;;;;;;;;;6095761;23;20520;-91
2023/02/28 09:29:26;;;;;;;10.57;6.32;;;;;;;;;;6072126;23;20466;-91
2023/02/28 09:31:54;;;;;;;14.20;7.60;;;;;;;;;;6082010;23;20026;-91
2023/02/28 09:34:24;;;;;;;8.57;7.13;;;;;;;;;;6080435;23;20044;-94
2023/02/28 09:36:54;;;;;;;6.80;6.15;;;;;;;;;;6074067;23;20022;-92
2023/02/28 09:39:22;;;;;;;7.50;5.80;;;;;;;;;;6073752;23;20021;-90
2023/02/28 09:41:52;;;;;;;9.63;6.40;;;;;;;;;;6073435;23;20029;-90
2023/02/28 09:44:25;;;;;;;9.32;5.63;;;;;;;;;;6073902;23;20029;-91
2023/02/28 09:46:57;;;;;;;7.15;5.60;;;;;;;;;;6073745;23;20029;-90
2023/02/28 09:49:28;;;;;;;9.25;6.45;;;;;;;;;;6073862;23;20014;-90
2023/02/28 09:52:00;;;;;;;9.07;6.95;;;;;;;;;;6070744;23;20022;-90
2023/02/28 09:54:30;;;;;;;10.05;8.10;;;;;;;;;;6072310;23;20369;-90
2023/02/28 09:57:02;;;;;;;8.98;6.25;;;;;;;;;;6098396;23;20014;-91
2023/02/28 09:59:43;;;;;;;9.88;7.55;;;;;;;;;;6073841;23;20018;-90
2023/02/28 10:02:22;;;;;;;9.43;6.82;;;;;;;;;;6073659;23;20393;-91
2023/02/28 10:08:08;;;;;;;9.75;6.00;;;;;;;;;;6135940;23;20018;-91
2023/02/28 10:10:50;;;;;;;9.10;6.70;;;;;;;;;;6101736;23;20018;-92
2023/02/28 10:13:25;;;;;;;9.25;5.75;;;;;;;;;;6151562;23;20025;-91
2023/02/28 10:15:56;;;;;;;15.52;7.60;;;;;;;;;;6166452;23;20017;-91
2023/02/28 10:18:28;;;;;;;7.28;6.55;;;;;;;;;;6131642;23;20017;-91
2023/02/28 10:20:57;;;;;;;8.32;6.93;;;;;;;;;;6156821;23;20017;-90
2023/02/28 10:23:28;;;;;;;8.98;6.50;;;;;;;;;;6133348;23;20021;-92
2023/02/28 10:26:00;;;;;;;9.75;6.28;;;;;;;;;;6157493;23;20020;-90
2023/02/28 10:28:30;;;;;;;8.02;6.75;;;;;;;;;;6133999;23;20021;-90
2023/02/28 10:30:58;;;;;;;9.75;6.90;;;;;;;;;;6132664;23;20365;-90
2023/02/28 10:33:32;;;;;;;7.53;6.80;;;;;;;;;;6133930;23;20028;-91
2023/02/28 10:36:00;;;;;;;9.05;6.60;;;;;;;;;;6157329;23;20017;-90
2023/02/28 10:38:33;;;;;;;8.23;7.43;;;;;;;;;;6133651;23;20017;-91
2023/02/28 10:41:08;;;;;;;11.80;8.82;;;;;;;;;;6133099;23;20349;-91
2023/02/28 10:43:36;;;;;;;7.68;5.32;;;;;;;;;;6130913;23;20036;-90
2023/02/28 10:46:15;;;;;;;8.65;6.55;;;;;;;;;;6132601;23;20017;-91
2023/02/28 10:48:45;;;;;;;;;;;;;;;;;;6133242;23;20028;-90
2023/02/28 10:51:13;;;;;;;8.95;6.60;;;;;;;;;;6133012;23;19916;-90
2023/02/28 10:53:49;;;;;;;9.68;6.63;;;;;;;;;;6133188;23;20017;-90
2023/02/28 10:56:21;;;;;;;8.75;6.93;;;;;;;;;;6158651;23;20471;-90
2023/02/28 10:58:53;;;;;;;8.65;6.55;;;;;;;;;;6133518;23;20023;-90
2023/02/28 11:01:23;;;;;;;9.02;7.32;;;;;;;;;;6158651;23;20036;-91
2023/02/28 11:03:54;;;;;;;7.82;6.53;;;;;;;;;;6133071;23;20028;-90
2023/02/28 11:06:27;;;;;;;8.10;6.97;;;;;;;;;;6133006;23;20017;-90
2023/02/28 11:08:56;;;;;;;11.15;7.43;;;;;;;;;;6132863;23;20013;-90
2023/02/28 11:11:26;;;;;;;11.73;8.00;;;;;;;;;;6133198;23;20024;-90
2023/02/28 11:13:57;;;;;;;9.98;7.20;;;;;;;;;;6132817;23;20052;-93
2023/02/28 11:16:33;;;;;;;10.65;8.32;;;;;;;;;;6133078;23;20024;-92
2023/02/28 11:19:03;;;;;;;10.07;7.35;;;;;;;;;;6132747;23;20023;-91
2023/02/28 11:21:33;;;;;;;10.10;7.28;;;;;;;;;;6132844;23;20017;-90
2023/02/28 11:24:11;;;;;;;11.20;7.18;;;;;;;;;;6132318;23;20021;-90
2023/02/28 11:26:43;;;;;;;8.88;7.32;;;;;;;;;;6131856;23;20017;-91
2023/02/28 11:29:18;;;;;;;9.95;6.57;;;;;;;;;;6157672;23;20042;-91
2023/02/28 11:32:02;;;;;;;8.43;6.35;;;;;;;;;;6131884;23;20017;-90
2023/02/28 11:34:32;;;;;;;7.75;6.20;;;;;;;;;;6131988;23;20484;-90
2023/02/28 11:37:05;;;;;;;8.50;7.53;;;;;;;;;;6156684;23;20021;-90
2023/02/28 11:39:33;;;;;;;11.70;7.82;;;;;;;;;;6133593;23;20364;-90
2023/02/28 11:42:40;;;;;;;13.85;8.07;;;;;;;;;;6131788;23;20021;-90
2023/02/28 11:45:22;;;;;;;8.82;7.93;;;;;;;;;;6099494;23;20017;-90
2023/02/28 11:47:58;;;;;;;10.23;8.00;;;;;;;;;;6133039;23;20357;-89
2023/02/28 11:50:44;;;;;;;11.38;7.38;;;;;;;;;;6135483;23;20066;-88
2023/02/28 11:53:20;;;;;;;8.15;7.18;;;;;;;;;;6159658;23;20023;-90
2023/02/28 11:55:50;;;;;;;9.55;8.43;;;;;;;;;;6130837;23;20013;-90
2023/02/28 11:58:36;;;;;;;11.85;8.02;;;;;;;;;;6129880;23;20460;-90
2023/02/28 12:01:14;;;;;;;10.65;7.45;;;;;;;;;;6108619;23;20593;-89
2023/02/28 12:03:47;;;;;;;8.05;6.93;;;;;;;;;;6131826;23;20017;-90
2023/02/28 12:06:23;;;;;;;12.57;7.55;;;;;;;;;;6132505;23;20017;-91
2023/02/28 12:09:21;;;;;;;15.43;8.25;;;;;;;;;;6156371;23;20028;-91
2023/02/28 12:11:54;;;;;;;9.07;7.85;;;;;;;;;;6131888;23;20021;-91
2023/02/28 12:15:06;;;;;;;8.25;7.28;;;;;;;;;;6131194;23;20021;-90
2023/02/28 12:17:41;;;;;;;11.48;8.18;;;;;;;;;;6156593;23;20017;-90
2023/02/28 12:20:19;;;;;;;9.48;7.88;;;;;;;;;;6132086;23;20372;-91
2023/02/28 12:23:00;;;;;;;7.75;6.38;;;;;;;;;;6132015;23;20127;-89
2023/02/28 12:25:44;;;;;;;12.82;7.95;;;;;;;;;;6133006;23;20020;-91
2023/02/28 12:28:12;;;;;;;;;;;;;;;;;;6182476;23;20013;-91
2023/02/28 12:30:43;;;;;;;10.40;7.85;;;;;;;;;;6156549;23;20363;-91
2023/02/28 12:33:15;;;;;;;10.23;7.15;;;;;;;;;;6131502;23;20023;-91
2023/02/28 12:35:47;;;;;;;11.98;9.68;;;;;;;;;;6136859;23;20005;-91
2023/02/28 12:38:19;;;;;;;9.45;6.47;;;;;;;;;;6136074;23;20385;-91
2023/02/28 12:40:51;;;;;;;9.60;8.43;;;;;;;;;;6132575;23;20360;-91
2023/02/28 12:43:19;;;;;;;10.57;7.63;;;;;;;;;;6155654;23;20028;-91
2023/02/28 12:45:50;;;;;;;9.52;6.80;;;;;;;;;;6154640;23;20020;-92
2023/02/28 12:48:21;;;;;;;11.38;8.82;;;;;;;;;;6153876;23;20473;-91
2023/02/28 12:50:49;;;;;;;12.77;7.38;;;;;;;;;;6130167;23;20021;-91
2023/02/28 12:53:58;;;;;;;9.52;8.02;;;;;;;;;;6130927;23;20032;-90
2023/02/28 12:56:37;;;;;;;12.93;7.55;;;;;;;;;;6108003;23;20017;-91
2023/02/28 12:59:13;;;;;;;10.18;7.60;;;;;;;;;;6133026;23;20472;-91
2023/02/28 13:02:05;;;;;;;13.85;9.02;;;;;;;;;;6132401;23;20500;-91
2023/02/28 13:04:45;;;;;;;12.02;9.05;;;;;;;;;;6098649;23;20018;-91
2023/02/28 13:07:41;;;;;;;9.70;8.60;;;;;;;;;;6130708;23;20020;-90
2023/02/28 13:10:11;;;;;;;14.43;8.02;;;;;;;;;;6128111;23;20017;-91
2023/02/28 13:12:49;;;;;;;11.40;8.02;;;;;;;;;;6131396;23;20024;-90
2023/02/28 13:15:21;;;;;;;9.45;7.05;;;;;;;;;;6133399;23;20028;-90
2023/02/28 13:17:50;;;;;;;8.18;7.22;;;;;;;;;;6157085;23;20013;-92
2023/02/28 13:20:19;;;;;;;12.20;9.05;;;;;;;;;;6109029;23;20017;-91
2023/02/28 13:22:49;;;;;;;12.68;8.20;;;;;;;;;;6132186;23;20025;-91
2023/02/28 13:26:02;;;;;;;14.05;7.75;;;;;;;;;;6157518;23;20017;-92
2023/02/28 13:29:06;;;;;;;9.18;7.90;;;;;;;;;;6063557;23;20618;-91
2023/02/28 13:32:20;;;;;;;9.93;7.22;;;;;;;;;;6039674;23;20034;-91
2023/02/28 13:35:15;;;;;;;12.48;8.75;;;;;;;;;;6132552;23;20017;-91
2023/02/28 13:37:44;;;;;;;12.10;9.00;;;;;;;;;;6156650;23;20020;-91
2023/02/28 13:40:36;;;;;;;9.48;8.48;;;;;;;;;;6132774;23;20013;-91
2023/02/28 13:43:09;;;;;;;12.25;9.48;;;;;;;;;;6131386;23;20020;-92
2023/02/28 13:45:38;;;;;;;12.40;8.80;;;;;;;;;;6157112;23;20024;-92
2023/02/28 13:48:19;;;;;;;8.52;7.55;;;;;;;;;;6155157;23;20319;-91
2023/02/28 13:50:47;;;;;;;11.07;7.68;;;;;;;;;;6132497;23;20021;-91
2023/02/28 13:53:41;;;;;;;11.25;9.45;;;;;;;;;;6130685;23;20044;-92
2023/02/28 13:56:23;;;;;;;11.48;8.73;;;;;;;;;;6131893;23;20503;-93
2023/02/28 13:58:57;;;;;;;11.60;8.40;;;;;;;;;;6130371;23;20013;-93
2023/02/28 14:01:39;;;;;;;10.80;7.82;;;;;;;;;;6131730;23;20024;-92
2023/02/28 14:04:28;;;;;;;14.07;9.52;;;;;;;;;;6129634;23;20017;-91
2023/02/28 14:06:57;;;;;;;9.77;7.72;;;;;;;;;;6154807;23;20036;-92
2023/02/28 14:09:28;;;;;;;8.95;7.30;;;;;;;;;;6131371;23;20054;-91
2023/02/28 14:11:56;;;;;;;16.83;8.15;;;;;;;;;;6130377;23;20367;-92
2023/02/28 14:14:57;;;;;;;8.63;7.72;;;;;;;;;;6155699;23;20472;-92
2023/02/28 14:17:25;;;;;;;8.80;6.70;;;;;;;;;;6131272;23;20030;-91
2023/02/28 14:19:53;;;;;;;12.57;8.70;;;;;;;;;;6129477;23;20013;-89
2023/02/28 14:22:41;;;;;;;9.45;7.78;;;;;;;;;;6130296;23;20024;-89
2023/02/28 14:25:21;;;;;;;10.43;7.95;;;;;;;;;;6131440;23;20017;-91
2023/02/28 14:27:51;;;;;;;9.68;7.05;;;;;;;;;;6156669;23;20024;-90
2023/02/28 14:30:44;;;;;;;10.38;7.93;;;;;;;;;;6132406;23;20013;-90
2023/02/28 14:33:32;;;;;;;9.70;7.55;;;;;;;;;;6131677;23;20017;-91
2023/02/28 14:36:21;;;;;;;9.88;7.97;;;;;;;;;;6155471;23;20017;-90
2023/02/28 14:38:53;;;;;;;10.02;8.85;;;;;;;;;;6132211;23;20358;-89
2023/02/28 14:41:30;;;;;;;13.98;8.27;;;;;;;;;;6129464;23;20021;-90
2023/02/28 14:43:59;;;;;;;8.88;7.68;;;;;;;;;;6128557;23;20025;-89
2023/02/28 14:46:33;;;;;;;11.57;8.27;;;;;;;;;;6131407;23;20028;-89
2023/02/28 14:49:01;;;;;;;9.68;7.57;;;;;;;;;;6107550;23;20460;-89
2023/02/28 14:51:34;;;;;;;11.13;8.82;;;;;;;;;;6166607;23;20024;-90
2023/02/28 14:54:02;;;;;;;10.43;9.13;;;;;;;;;;6131279;23;20028;-90
2023/02/28 14:56:36;;;;;;;11.38;8.55;;;;;;;;;;6156294;23;20028;-89
2023/02/28 14:59:04;;;;;;;11.45;9.00;;;;;;;;;;6131462;23;20017;-90
2023/02/28 15:01:34;;;;;;;9.63;6.68;;;;;;;;;;6154923;23;20017;-90
2023/02/28 15:04:03;;;;;;;14.70;8.75;;;;;;;;;;6154133;23;20020;-91
2023/02/28 15:06:32;;;;;;;11.93;7.75;;;;;;;;;;6131307;23;20017;-90
2023/02/28 15:09:18;;;;;;;11.48;7.47;;;;;;;;;;6155461;23;20483;-91
2023/02/28 15:11:48;;;;;;;9.55;7.85;;;;;;;;;;6134407;23;20021;-92
2023/02/28 15:14:20;;;;;;;15.82;9.13;;;;;;;;;;6133615;23;20017;-90
2023/02/28 15:16:58;;;;;;;10.55;8.35;;;;;;;;;;6134550;23;20021;-91